Aviation Digital Data Service (ADDS)

Output produced by METARs form (0137 UTC 23 November 2017)
found at http://www.aviationweather.gov/adds/metars/
 
GMAD 230130Z 06005KT CAVOK 09/M01 Q1016 NOSIG
TAF GMAD 222300Z 2300/2406 07006KT CAVOK 
     BECMG 2312/2314 26010KT
       
GMMC 222000Z 30002KT CAVOK 16/09 Q1015 NOSIG
GMFO 230100Z VRB04KT CAVOK 06/M03 Q1018 NOSIG
TAF GMFO 222300Z 2300/2406 VRB03KT CAVOK 
     BECMG 2306/2310 17011KT CAVOK 
     BECMG 2314/2318 33012KT
       
GMMW 230100Z 24003KT 6000 FEW002 09/09 Q1017 NOSIG
TAF GMMW 222300Z 2300/2406 18004KT 3000 BR NSC 
     PROB40 
     TEMPO 2300/2306 0600 FG SCT004 
     BECMG 2308/2310 CAVOK
       
GMFM 230100Z 16008KT CAVOK 15/M05 Q1018 NOSIG
TAF GMFM 222300Z 2300/2406 17004KT CAVOK
       
GMTA 230100Z 16006KT CAVOK 10/06 Q1017 NOSIG
TAF GMTA 222300Z 2300/2406 17006KT CAVOK
       
GMMI 230100Z AUTO 07004KT 9999NDV NCD ///// Q1016 NOSIG
TAF GMMI 222300Z 2300/2406 11005KT 8000 NSC
       
GMAD 230130Z 06005KT CAVOK 09/M01 Q1016 NOSIG
TAF GMAD 222300Z 2300/2406 07006KT CAVOK 
     BECMG 2312/2314 26010KT
       
GMFF 230100Z 19010KT CAVOK 12/M05 Q1019 NOSIG
TAF GMFF 222300Z 2300/2406 18006KT CAVOK 
     BECMG 2310/2314 32010KT 
     BECMG 2319/2323 18006KT
       
GMFK 222300Z 34002KT CAVOK 09/M06 Q1022 NOSIG
GMFM 230100Z 16008KT CAVOK 15/M05 Q1018 NOSIG
TAF GMFM 222300Z 2300/2406 17004KT CAVOK
       
GMFO 230100Z VRB04KT CAVOK 06/M03 Q1018 NOSIG
TAF GMFO 222300Z 2300/2406 VRB03KT CAVOK 
     BECMG 2306/2310 17011KT CAVOK 
     BECMG 2314/2318 33012KT
       
GMMB 230100Z AUTO 13005KT //// ////// 11/M01 Q1018 NOSIG
GMMC 222000Z 30002KT CAVOK 16/09 Q1015 NOSIG
GMME 230100Z VRB01KT CAVOK 10/01 Q1016 NOSIG
TAF GMME 222300Z 2300/2406 14006KT 6000 SCT010 SCT016 
     TEMPO 2310/2318 CAVOK
       
GMMH 222100Z 23005KT 8000 NSC 20/18 Q1014 NOSIG
TAF GMMH 222300Z 2300/2406 VRB02KT 8000 NSC 
     PROB40 2300/2306 2000 BR SCT010 
     BECMG 2308/2310 03008KT
       
GMMI 230100Z AUTO 07004KT 9999NDV NCD ///// Q1016 NOSIG
TAF GMMI 222300Z 2300/2406 11005KT 8000 NSC
       
GMML 230100Z 12008KT CAVOK 18/M06 Q1014 NOSIG
TAF GMML 222300Z 2300/2406 11008KT CAVOK
       
GMMN 230130Z 15006KT CAVOK 10/M02 Q1017 NOSIG
TAF GMMN 222300Z 2300/2406 14006KT CAVOK 
     BECMG 2302/2308 VRB02KT 8000 NSC 
     BECMG 2308/2311 18010KT CAVOK
       
GMMW 230100Z 24003KT 6000 FEW002 09/09 Q1017 NOSIG
TAF GMMW 222300Z 2300/2406 18004KT 3000 BR NSC 
     PROB40 
     TEMPO 2300/2306 0600 FG SCT004 
     BECMG 2308/2310 CAVOK
       
GMMX 230130Z VRB02KT CAVOK 12/M07 Q1017 NOSIG
TAF GMMX 222300Z 2300/2406 06006KT 8000 NSC
       
GMMZ 230100Z 00000KT CAVOK 09/M05 Q1020 NOSIG
TAF GMMZ 222300Z 2300/2406 VRB02KT CAVOK
       
GMTA 230100Z 16006KT CAVOK 10/06 Q1017 NOSIG
TAF GMTA 222300Z 2300/2406 17006KT CAVOK
       
GMTN 230100Z AUTO /////KT /// 10/07 Q1017
GMTT 230130Z 12003KT 8000 R28///// NSC 11/06 Q1016 NOSIG
TAF GMTT 222300Z 2300/2406 10008KT 8000 SCT200
       
GMTT 230130Z 12003KT 8000 R28///// NSC 11/06 Q1016 NOSIG
TAF GMTT 222300Z 2300/2406 10008KT 8000 SCT200
       
GMMX 230130Z VRB02KT CAVOK 12/M07 Q1017 NOSIG
TAF GMMX 222300Z 2300/2406 06006KT 8000 NSC
       
GMMN 230130Z 15006KT CAVOK 10/M02 Q1017 NOSIG
TAF GMMN 222300Z 2300/2406 14006KT CAVOK 
     BECMG 2302/2308 VRB02KT 8000 NSC 
     BECMG 2308/2311 18010KT CAVOK
       
GMFK 222300Z 34002KT CAVOK 09/M06 Q1022 NOSIG
GMMZ 230100Z 00000KT CAVOK 09/M05 Q1020 NOSIG
TAF GMMZ 222300Z 2300/2406 VRB02KT CAVOK
       
GMFF 230100Z 19010KT CAVOK 12/M05 Q1019 NOSIG
TAF GMFF 222300Z 2300/2406 18006KT CAVOK 
     BECMG 2310/2314 32010KT 
     BECMG 2319/2323 18006KT
       
GMME 230100Z VRB01KT CAVOK 10/01 Q1016 NOSIG
TAF GMME 222300Z 2300/2406 14006KT 6000 SCT010 SCT016 
     TEMPO 2310/2318 CAVOK
       
GMTN 230100Z AUTO /////KT /// 10/07 Q1017